ARE4112 SKBO-SKCG
Flight info
| Callsign | ARE4112 |
|---|---|
| Flight time | 0h 59m |
| Altitude | 36000 |
| Route | OSUSU4R GIKPU UQ120 DIBAM UW10 UGREB UGREB3B |
| Aircraft | A320/M-SDE3FGHIRWY/LB1 |
Departure
| Time | 2026-04-22 02:54 |
|---|---|
| Airport | El Dorado International Airport (SKBO) |
Arrival
| Time | 2026-04-22 03:53 |
|---|---|
| Airport | Rafael Nuñez International Airport (SKCG) |
| Time | Latitude | Longitude | Altitude | Speed | Heading |
|---|---|---|---|---|---|
| 2026-04-22 02:19 | 4.70030 | -74.14378 | 8364 ft | 0 kts | 34° |
| 2026-04-22 02:31 | 4.70029 | -74.14378 | 8364 ft | 1 kts | 35° |
| 2026-04-22 02:31 | 4.70017 | -74.14387 | 8364 ft | 2 kts | 34° |
| 2026-04-22 02:31 | 4.70005 | -74.14395 | 8364 ft | 2 kts | 35° |
| 2026-04-22 02:32 | 4.69992 | -74.14404 | 8364 ft | 2 kts | 34° |
| 2026-04-22 02:32 | 4.69979 | -74.14410 | 8364 ft | 2 kts | 359° |
| 2026-04-22 02:32 | 4.69964 | -74.14406 | 8364 ft | 2 kts | 321° |
| 2026-04-22 02:32 | 4.69955 | -74.14394 | 8364 ft | 2 kts | 302° |
| 2026-04-22 02:33 | 4.69946 | -74.14382 | 8364 ft | 1 kts | 308° |
| 2026-04-22 02:33 | 4.69944 | -74.14379 | 8364 ft | 0 kts | 307° |
| 2026-04-22 02:47 | 4.69944 | -74.14380 | 8364 ft | 1 kts | 307° |
| 2026-04-22 02:48 | 4.69965 | -74.14407 | 8364 ft | 8 kts | 308° |
| 2026-04-22 02:48 | 4.70016 | -74.14474 | 8364 ft | 13 kts | 304° |
| 2026-04-22 02:48 | 4.70066 | -74.14542 | 8364 ft | 9 kts | 324° |
| 2026-04-22 02:48 | 4.70132 | -74.14568 | 8364 ft | 14 kts | 322° |
| 2026-04-22 02:49 | 4.70211 | -74.14566 | 8364 ft | 15 kts | 36° |
| 2026-04-22 02:49 | 4.70313 | -74.14489 | 8364 ft | 21 kts | 36° |
| 2026-04-22 02:49 | 4.70432 | -74.14398 | 8364 ft | 8 kts | 37° |
| 2026-04-22 02:49 | 4.70497 | -74.14424 | 8364 ft | 14 kts | 313° |
| 2026-04-22 02:50 | 4.70569 | -74.14519 | 8364 ft | 19 kts | 306° |
| 2026-04-22 02:50 | 4.70657 | -74.14634 | 8364 ft | 20 kts | 307° |
| 2026-04-22 02:50 | 4.70735 | -74.14739 | 8364 ft | 17 kts | 307° |
| 2026-04-22 02:50 | 4.70799 | -74.14826 | 8364 ft | 13 kts | 303° |
| 2026-04-22 02:51 | 4.70852 | -74.14894 | 8364 ft | 10 kts | 307° |
| 2026-04-22 02:51 | 4.70906 | -74.14964 | 8364 ft | 18 kts | 307° |
| 2026-04-22 02:51 | 4.71007 | -74.15099 | 8364 ft | 29 kts | 307° |
| 2026-04-22 02:51 | 4.71121 | -74.15214 | 8364 ft | 20 kts | 345° |
| 2026-04-22 02:52 | 4.71228 | -74.15230 | 8364 ft | 14 kts | 356° |
| 2026-04-22 02:52 | 4.71308 | -74.15221 | 8364 ft | 8 kts | 23° |
| 2026-04-22 02:52 | 4.71323 | -74.15185 | 8364 ft | 5 kts | 124° |
| 2026-04-22 02:52 | 4.71285 | -74.15136 | 8364 ft | 17 kts | 127° |
| 2026-04-22 02:53 | 4.71084 | -74.14870 | 8364 ft | 81 kts | 128° |
| 2026-04-22 02:53 | 4.70617 | -74.14250 | 8364 ft | 139 kts | 127° |
| 2026-04-22 02:53 | 4.69923 | -74.13338 | 8399 ft | 183 kts | 128° |
| 2026-04-22 02:53 | 4.69115 | -74.12315 | 8859 ft | 191 kts | 129° |
| 2026-04-22 02:54 | 4.68418 | -74.11186 | 9470 ft | 190 kts | 105° |
| 2026-04-22 02:54 | 4.68450 | -74.09931 | 9996 ft | 181 kts | 63° |
| 2026-04-22 02:54 | 4.69334 | -74.09106 | 10328 ft | 177 kts | 18° |
| 2026-04-22 02:54 | 4.70517 | -74.08828 | 10700 ft | 177 kts | 8° |
| 2026-04-22 02:55 | 4.71724 | -74.08607 | 11064 ft | 178 kts | 10° |
| 2026-04-22 02:55 | 4.72951 | -74.08322 | 11317 ft | 187 kts | 13° |
| 2026-04-22 02:55 | 4.74249 | -74.07955 | 11550 ft | 198 kts | 15° |
| 2026-04-22 02:55 | 4.75602 | -74.07533 | 11787 ft | 210 kts | 16° |
| 2026-04-22 02:56 | 4.77013 | -74.07072 | 12025 ft | 222 kts | 17° |
| 2026-04-22 02:56 | 4.78533 | -74.06567 | 12270 ft | 234 kts | 17° |
| 2026-04-22 02:56 | 4.80088 | -74.06046 | 12568 ft | 243 kts | 17° |
| 2026-04-22 02:56 | 4.81712 | -74.05500 | 13007 ft | 247 kts | 17° |
| 2026-04-22 02:57 | 4.83393 | -74.04935 | 13146 ft | 268 kts | 17° |
| 2026-04-22 02:57 | 4.85222 | -74.04319 | 13458 ft | 284 kts | 18° |
| 2026-04-22 02:57 | 4.87125 | -74.03676 | 13759 ft | 301 kts | 18° |
| 2026-04-22 02:57 | 4.89139 | -74.02994 | 14210 ft | 311 kts | 18° |
| 2026-04-22 02:58 | 4.91190 | -74.02297 | 14858 ft | 314 kts | 18° |
| 2026-04-22 02:58 | 4.93276 | -74.01588 | 15520 ft | 316 kts | 18° |
| 2026-04-22 02:58 | 4.95361 | -74.00880 | 16151 ft | 319 kts | 18° |
| 2026-04-22 02:58 | 4.97442 | -74.00175 | 16697 ft | 322 kts | 18° |
| 2026-04-22 02:59 | 4.99562 | -73.99451 | 16963 ft | 322 kts | 18° |
| 2026-04-22 02:59 | 5.01696 | -73.98747 | 16980 ft | 321 kts | 15° |
| 2026-04-22 02:59 | 5.03852 | -73.98169 | 16984 ft | 320 kts | 13° |
| 2026-04-22 02:59 | 5.05996 | -73.97633 | 16985 ft | 320 kts | 13° |
| 2026-04-22 03:00 | 5.08160 | -73.97096 | 16991 ft | 322 kts | 13° |
| 2026-04-22 03:00 | 5.10326 | -73.96560 | 17291 ft | 328 kts | 13° |
| 2026-04-22 03:00 | 5.12530 | -73.96012 | 17986 ft | 327 kts | 13° |
| 2026-04-22 03:00 | 5.14736 | -73.95464 | 18604 ft | 328 kts | 13° |
| 2026-04-22 03:01 | 5.16967 | -73.94908 | 18903 ft | 340 kts | 13° |
| 2026-04-22 03:01 | 5.19321 | -73.94323 | 19141 ft | 353 kts | 13° |
| 2026-04-22 03:01 | 5.21730 | -73.93724 | 19371 ft | 366 kts | 13° |
| 2026-04-22 03:01 | 5.24238 | -73.93101 | 19591 ft | 378 kts | 13° |
| 2026-04-22 03:02 | 5.26830 | -73.92457 | 19806 ft | 390 kts | 13° |
| 2026-04-22 03:02 | 5.29485 | -73.91798 | 20007 ft | 401 kts | 13° |
| 2026-04-22 03:02 | 5.32209 | -73.91122 | 20204 ft | 411 kts | 13° |
| 2026-04-22 03:02 | 5.35031 | -73.90421 | 20476 ft | 419 kts | 13° |
| 2026-04-22 03:03 | 5.37854 | -73.89718 | 20884 ft | 423 kts | 14° |
| 2026-04-22 03:03 | 5.40691 | -73.89008 | 21303 ft | 426 kts | 14° |
| 2026-04-22 03:03 | 5.43588 | -73.88282 | 21710 ft | 430 kts | 14° |
| 2026-04-22 03:03 | 5.46467 | -73.87563 | 22089 ft | 433 kts | 14° |
| 2026-04-22 03:04 | 5.49413 | -73.86827 | 22479 ft | 435 kts | 14° |
| 2026-04-22 03:04 | 5.52351 | -73.86096 | 22869 ft | 438 kts | 13° |
| 2026-04-22 03:04 | 5.55336 | -73.85438 | 23257 ft | 440 kts | 12° |
| 2026-04-22 03:04 | 5.58324 | -73.84819 | 23639 ft | 443 kts | 12° |
| 2026-04-22 03:05 | 5.61343 | -73.84199 | 24008 ft | 445 kts | 12° |
| 2026-04-22 03:05 | 5.64351 | -73.83582 | 24365 ft | 447 kts | 11° |
| 2026-04-22 03:05 | 5.67430 | -73.82950 | 24702 ft | 450 kts | 12° |
| 2026-04-22 03:05 | 5.70488 | -73.82321 | 25028 ft | 453 kts | 12° |
| 2026-04-22 03:06 | 5.73564 | -73.81688 | 25353 ft | 455 kts | 12° |
| 2026-04-22 03:06 | 5.76659 | -73.81050 | 25673 ft | 457 kts | 12° |
| 2026-04-22 03:06 | 5.79761 | -73.80411 | 25982 ft | 460 kts | 12° |
| 2026-04-22 03:06 | 5.82880 | -73.79768 | 26267 ft | 463 kts | 12° |
| 2026-04-22 03:07 | 5.86045 | -73.79115 | 26558 ft | 465 kts | 12° |
| 2026-04-22 03:07 | 5.89195 | -73.78466 | 26833 ft | 467 kts | 11° |
| 2026-04-22 03:07 | 5.92360 | -73.77813 | 27102 ft | 469 kts | 11° |
| 2026-04-22 03:07 | 5.95598 | -73.77145 | 27369 ft | 472 kts | 11° |
| 2026-04-22 03:08 | 5.98781 | -73.76489 | 27636 ft | 473 kts | 11° |
| 2026-04-22 03:08 | 6.02008 | -73.75823 | 27996 ft | 472 kts | 11° |
| 2026-04-22 03:08 | 6.05204 | -73.75165 | 28363 ft | 472 kts | 11° |
| 2026-04-22 03:08 | 6.08413 | -73.74505 | 28720 ft | 471 kts | 11° |
| 2026-04-22 03:09 | 6.11597 | -73.73850 | 29057 ft | 471 kts | 11° |
| 2026-04-22 03:09 | 6.14784 | -73.73193 | 29386 ft | 470 kts | 11° |
| 2026-04-22 03:09 | 6.17993 | -73.72532 | 29718 ft | 470 kts | 11° |
| 2026-04-22 03:09 | 6.21171 | -73.71877 | 30041 ft | 470 kts | 11° |
| 2026-04-22 03:10 | 6.24379 | -73.71217 | 30367 ft | 469 kts | 11° |
| 2026-04-22 03:10 | 6.27545 | -73.70565 | 30697 ft | 469 kts | 12° |
| 2026-04-22 03:10 | 6.30741 | -73.69907 | 31033 ft | 468 kts | 12° |
| 2026-04-22 03:10 | 6.33907 | -73.69254 | 31363 ft | 467 kts | 12° |
| 2026-04-22 03:11 | 6.37080 | -73.68599 | 31673 ft | 466 kts | 12° |
| 2026-04-22 03:11 | 6.40219 | -73.67951 | 31981 ft | 466 kts | 12° |
| 2026-04-22 03:11 | 6.43380 | -73.67299 | 32290 ft | 465 kts | 12° |
| 2026-04-22 03:11 | 6.46541 | -73.66647 | 32588 ft | 464 kts | 12° |
| 2026-04-22 03:12 | 6.49715 | -73.65992 | 32893 ft | 464 kts | 12° |
| 2026-04-22 03:12 | 6.55975 | -73.64702 | 33459 ft | 463 kts | 12° |
| 2026-04-22 03:12 | 6.59116 | -73.64054 | 33741 ft | 462 kts | 12° |
| 2026-04-22 03:13 | 6.62229 | -73.63412 | 34018 ft | 461 kts | 12° |
| 2026-04-22 03:13 | 6.65376 | -73.62762 | 34297 ft | 461 kts | 13° |
| 2026-04-22 03:13 | 6.68501 | -73.62118 | 34527 ft | 461 kts | 13° |
| 2026-04-22 03:13 | 6.71658 | -73.61465 | 34717 ft | 462 kts | 13° |
| 2026-04-22 03:14 | 6.74806 | -73.60815 | 34889 ft | 464 kts | 13° |
| 2026-04-22 03:14 | 6.77928 | -73.60171 | 35049 ft | 465 kts | 13° |
| 2026-04-22 03:14 | 6.81108 | -73.59514 | 35226 ft | 466 kts | 13° |
| 2026-04-22 03:14 | 6.84249 | -73.58866 | 35394 ft | 467 kts | 13° |
| 2026-04-22 03:15 | 6.87448 | -73.58208 | 35561 ft | 468 kts | 13° |
| 2026-04-22 03:15 | 6.90618 | -73.57555 | 35747 ft | 468 kts | 13° |
| 2026-04-22 03:15 | 6.93804 | -73.56985 | 35905 ft | 470 kts | 10° |
| 2026-04-22 03:15 | 6.97052 | -73.56583 | 35979 ft | 472 kts | 7° |
| 2026-04-22 03:16 | 7.03617 | -73.56345 | 35986 ft | 474 kts | 360° |
| 2026-04-22 03:16 | 7.10187 | -73.56635 | 35987 ft | 475 kts | 358° |
| 2026-04-22 03:17 | 7.16724 | -73.56967 | 35987 ft | 475 kts | 358° |
| 2026-04-22 03:17 | 7.23309 | -73.57291 | 35986 ft | 475 kts | 358° |
| 2026-04-22 03:18 | 7.29885 | -73.57608 | 35987 ft | 476 kts | 358° |
| 2026-04-22 03:18 | 7.36506 | -73.57925 | 35987 ft | 476 kts | 358° |
| 2026-04-22 03:19 | 7.43103 | -73.58241 | 35987 ft | 477 kts | 358° |
| 2026-04-22 03:19 | 7.49704 | -73.58556 | 35987 ft | 477 kts | 358° |
| 2026-04-22 03:20 | 7.56295 | -73.58872 | 35987 ft | 477 kts | 358° |
| 2026-04-22 03:20 | 7.62909 | -73.59189 | 35987 ft | 477 kts | 358° |
| 2026-04-22 03:21 | 7.69508 | -73.59505 | 35987 ft | 477 kts | 358° |
| 2026-04-22 03:21 | 7.76128 | -73.59821 | 35989 ft | 477 kts | 358° |
| 2026-04-22 03:22 | 7.82728 | -73.60137 | 35994 ft | 477 kts | 358° |
| 2026-04-22 03:22 | 7.89338 | -73.60455 | 36001 ft | 477 kts | 358° |
| 2026-04-22 03:23 | 7.95911 | -73.60773 | 36004 ft | 477 kts | 358° |
| 2026-04-22 03:23 | 8.02539 | -73.61090 | 36005 ft | 477 kts | 358° |
| 2026-04-22 03:24 | 8.09139 | -73.61407 | 36005 ft | 478 kts | 358° |
| 2026-04-22 03:24 | 8.15625 | -73.62536 | 36003 ft | 479 kts | 342° |
| 2026-04-22 03:25 | 8.21676 | -73.65403 | 36005 ft | 478 kts | 326° |
| 2026-04-22 03:25 | 8.26689 | -73.69733 | 36007 ft | 476 kts | 311° |
| 2026-04-22 03:26 | 8.30992 | -73.74578 | 36006 ft | 476 kts | 310° |
| 2026-04-22 03:26 | 8.35314 | -73.79501 | 36005 ft | 476 kts | 310° |
| 2026-04-22 03:27 | 8.39768 | -73.84525 | 36005 ft | 476 kts | 310° |
| 2026-04-22 03:27 | 8.44187 | -73.89494 | 36005 ft | 476 kts | 310° |
| 2026-04-22 03:28 | 8.48666 | -73.94524 | 36006 ft | 476 kts | 310° |
| 2026-04-22 03:28 | 8.53082 | -73.99483 | 36002 ft | 475 kts | 310° |
| 2026-04-22 03:29 | 8.57506 | -74.04453 | 35995 ft | 475 kts | 310° |
| 2026-04-22 03:29 | 8.61928 | -74.09423 | 35985 ft | 475 kts | 310° |
| 2026-04-22 03:30 | 8.66370 | -74.14418 | 35974 ft | 475 kts | 310° |
| 2026-04-22 03:30 | 8.70727 | -74.19320 | 35963 ft | 475 kts | 310° |
| 2026-04-22 03:31 | 8.75196 | -74.24348 | 35957 ft | 474 kts | 310° |
| 2026-04-22 03:31 | 8.79578 | -74.29282 | 35930 ft | 474 kts | 310° |
| 2026-04-22 03:32 | 8.81784 | -74.31767 | 35684 ft | 473 kts | 310° |
| 2026-04-22 03:32 | 8.84012 | -74.34274 | 35429 ft | 471 kts | 310° |
| 2026-04-22 03:32 | 8.86201 | -74.36739 | 35178 ft | 468 kts | 310° |
| 2026-04-22 03:32 | 8.88356 | -74.39168 | 34928 ft | 465 kts | 310° |
| 2026-04-22 03:33 | 8.90522 | -74.41608 | 34677 ft | 463 kts | 310° |
| 2026-04-22 03:33 | 8.92690 | -74.44051 | 34398 ft | 463 kts | 310° |
| 2026-04-22 03:33 | 8.94860 | -74.46499 | 33927 ft | 463 kts | 310° |
| 2026-04-22 03:33 | 8.97022 | -74.48937 | 33297 ft | 463 kts | 310° |
| 2026-04-22 03:34 | 8.99187 | -74.51381 | 32630 ft | 462 kts | 310° |
| 2026-04-22 03:34 | 9.01316 | -74.53784 | 31939 ft | 462 kts | 310° |
| 2026-04-22 03:34 | 9.03488 | -74.56237 | 31206 ft | 462 kts | 310° |
| 2026-04-22 03:34 | 9.05620 | -74.58643 | 30469 ft | 461 kts | 311° |
| 2026-04-22 03:35 | 9.07758 | -74.61057 | 29731 ft | 461 kts | 311° |
| 2026-04-22 03:35 | 9.09901 | -74.63474 | 28943 ft | 461 kts | 311° |
| 2026-04-22 03:35 | 9.12048 | -74.65897 | 28057 ft | 463 kts | 311° |
| 2026-04-22 03:35 | 9.14211 | -74.68337 | 27111 ft | 466 kts | 311° |
| 2026-04-22 03:36 | 9.16348 | -74.70749 | 26430 ft | 462 kts | 311° |
| 2026-04-22 03:36 | 9.18493 | -74.73170 | 25836 ft | 457 kts | 312° |
| 2026-04-22 03:36 | 9.20591 | -74.75537 | 25237 ft | 452 kts | 312° |
| 2026-04-22 03:36 | 9.22684 | -74.77902 | 24634 ft | 448 kts | 312° |
| 2026-04-22 03:37 | 9.24740 | -74.80224 | 24035 ft | 444 kts | 312° |
| 2026-04-22 03:37 | 9.26822 | -74.82519 | 23432 ft | 440 kts | 315° |
| 2026-04-22 03:37 | 9.29045 | -74.84669 | 22834 ft | 436 kts | 319° |
| 2026-04-22 03:37 | 9.31316 | -74.86556 | 22259 ft | 432 kts | 323° |
| 2026-04-22 03:38 | 9.33735 | -74.88332 | 21680 ft | 429 kts | 325° |
| 2026-04-22 03:38 | 9.36180 | -74.90068 | 21103 ft | 425 kts | 326° |
| 2026-04-22 03:38 | 9.38616 | -74.91788 | 20529 ft | 422 kts | 326° |
| 2026-04-22 03:38 | 9.41059 | -74.93520 | 19949 ft | 419 kts | 325° |
| 2026-04-22 03:39 | 9.43466 | -74.95232 | 19371 ft | 417 kts | 325° |
| 2026-04-22 03:39 | 9.45791 | -74.96891 | 18811 ft | 414 kts | 325° |
| 2026-04-22 03:39 | 9.48125 | -74.98558 | 18237 ft | 412 kts | 325° |
| 2026-04-22 03:39 | 9.50508 | -75.00259 | 17655 ft | 409 kts | 325° |
| 2026-04-22 03:40 | 9.52797 | -75.01893 | 17082 ft | 406 kts | 325° |
| 2026-04-22 03:40 | 9.55060 | -75.03505 | 16509 ft | 404 kts | 325° |
| 2026-04-22 03:40 | 9.57387 | -75.05163 | 15925 ft | 401 kts | 325° |
| 2026-04-22 03:40 | 9.59644 | -75.06773 | 15347 ft | 399 kts | 325° |
| 2026-04-22 03:41 | 9.61965 | -75.08430 | 14747 ft | 397 kts | 325° |
| 2026-04-22 03:41 | 9.64165 | -75.09999 | 14176 ft | 394 kts | 325° |
| 2026-04-22 03:41 | 9.66479 | -75.11649 | 13586 ft | 392 kts | 325° |
| 2026-04-22 03:41 | 9.68725 | -75.13251 | 13003 ft | 389 kts | 325° |
| 2026-04-22 03:42 | 9.70969 | -75.14853 | 12413 ft | 387 kts | 325° |
| 2026-04-22 03:42 | 9.73173 | -75.16425 | 11831 ft | 384 kts | 325° |
| 2026-04-22 03:42 | 9.75416 | -75.17978 | 11313 ft | 379 kts | 326° |
| 2026-04-22 03:42 | 9.77634 | -75.19454 | 10977 ft | 369 kts | 327° |
| 2026-04-22 03:43 | 9.79803 | -75.20890 | 10775 ft | 356 kts | 327° |
| 2026-04-22 03:43 | 9.81858 | -75.22253 | 10574 ft | 345 kts | 327° |
| 2026-04-22 03:43 | 9.83875 | -75.23595 | 10377 ft | 334 kts | 327° |
| 2026-04-22 03:43 | 9.85813 | -75.24887 | 10201 ft | 324 kts | 327° |
| 2026-04-22 03:44 | 9.87694 | -75.26144 | 10043 ft | 313 kts | 327° |
| 2026-04-22 03:44 | 9.89535 | -75.27374 | 9798 ft | 307 kts | 327° |
| 2026-04-22 03:44 | 9.91322 | -75.28570 | 9503 ft | 302 kts | 327° |
| 2026-04-22 03:44 | 9.93083 | -75.29748 | 9216 ft | 298 kts | 327° |
| 2026-04-22 03:45 | 9.94801 | -75.30896 | 8938 ft | 294 kts | 327° |
| 2026-04-22 03:45 | 9.96483 | -75.32021 | 8668 ft | 289 kts | 327° |
| 2026-04-22 03:45 | 9.98151 | -75.33136 | 8369 ft | 287 kts | 327° |
| 2026-04-22 03:45 | 9.99801 | -75.34239 | 8014 ft | 286 kts | 327° |
| 2026-04-22 03:46 | 10.01487 | -75.35370 | 7679 ft | 284 kts | 327° |
| 2026-04-22 03:46 | 10.03155 | -75.36486 | 7330 ft | 283 kts | 328° |
| 2026-04-22 03:46 | 10.04823 | -75.37602 | 6991 ft | 282 kts | 328° |
| 2026-04-22 03:46 | 10.06482 | -75.38712 | 6678 ft | 280 kts | 328° |
| 2026-04-22 03:47 | 10.08098 | -75.39795 | 6359 ft | 278 kts | 328° |
| 2026-04-22 03:47 | 10.09732 | -75.40888 | 6020 ft | 277 kts | 328° |
| 2026-04-22 03:47 | 10.11288 | -75.41930 | 5681 ft | 276 kts | 328° |
| 2026-04-22 03:47 | 10.12934 | -75.43034 | 5386 ft | 273 kts | 328° |
| 2026-04-22 03:48 | 10.14514 | -75.44092 | 5094 ft | 271 kts | 328° |
| 2026-04-22 03:48 | 10.16126 | -75.45171 | 4746 ft | 271 kts | 328° |
| 2026-04-22 03:48 | 10.17709 | -75.46232 | 4453 ft | 268 kts | 328° |
| 2026-04-22 03:48 | 10.19291 | -75.47294 | 4142 ft | 267 kts | 328° |
| 2026-04-22 03:49 | 10.20782 | -75.48293 | 3925 ft | 262 kts | 328° |
| 2026-04-22 03:49 | 10.22301 | -75.49313 | 3702 ft | 257 kts | 329° |
| 2026-04-22 03:49 | 10.23813 | -75.50325 | 3492 ft | 252 kts | 329° |
| 2026-04-22 03:49 | 10.25292 | -75.51314 | 3284 ft | 247 kts | 330° |
| 2026-04-22 03:50 | 10.26882 | -75.51928 | 3068 ft | 239 kts | 353° |
| 2026-04-22 03:50 | 10.28551 | -75.51996 | 2836 ft | 234 kts | 5° |
| 2026-04-22 03:50 | 10.30179 | -75.51894 | 2524 ft | 235 kts | 6° |
| 2026-04-22 03:50 | 10.31813 | -75.51794 | 2211 ft | 236 kts | 4° |
| 2026-04-22 03:51 | 10.33456 | -75.51724 | 1899 ft | 231 kts | 4° |
| 2026-04-22 03:51 | 10.35001 | -75.51667 | 1611 ft | 213 kts | 4° |
| 2026-04-22 03:51 | 10.36417 | -75.51611 | 1409 ft | 194 kts | 2° |
| 2026-04-22 03:51 | 10.37715 | -75.51557 | 1104 ft | 179 kts | 3° |
| 2026-04-22 03:52 | 10.38888 | -75.51509 | 877 ft | 162 kts | 4° |
| 2026-04-22 03:52 | 10.39967 | -75.51463 | 625 ft | 151 kts | 4° |
| 2026-04-22 03:52 | 10.40971 | -75.51415 | 422 ft | 137 kts | 5° |
| 2026-04-22 03:52 | 10.41893 | -75.51376 | 208 ft | 129 kts | 4° |
| 2026-04-22 03:53 | 10.42779 | -75.51347 | 112 ft | 128 kts | 4° |
| 2026-04-22 03:53 | 10.43655 | -75.51312 | 14 ft | 119 kts | 4° |
| 2026-04-22 03:53 | 10.44248 | -75.51288 | 13 ft | 41 kts | 4° |
| 2026-04-22 03:53 | 10.44406 | -75.51283 | 13 ft | 21 kts | 4° |
| 2026-04-22 03:54 | 10.44547 | -75.51299 | 13 ft | 18 kts | 287° |
| 2026-04-22 03:54 | 10.44550 | -75.51360 | 13 ft | 0 kts | 274° |